createdAt,value
2022-09-04T00:00:45.404Z,14.47
2022-09-04T00:01:45.603Z,14.54
2022-09-04T00:02:45.255Z,14.50
2022-09-04T00:04:06.245Z,14.57
2022-09-04T00:04:45.143Z,14.57
2022-09-04T00:05:45.021Z,14.50
2022-09-04T00:06:44.944Z,14.59
2022-09-04T00:07:44.879Z,14.56
2022-09-04T00:08:44.776Z,14.50
2022-09-04T00:10:05.687Z,14.52
2022-09-04T00:10:44.635Z,14.53
2022-09-04T00:11:44.557Z,14.49
2022-09-04T00:12:44.471Z,14.53
2022-09-04T00:13:44.395Z,14.49
2022-09-04T00:14:44.320Z,14.47
2022-09-04T00:16:05.238Z,14.39
2022-09-04T00:16:44.177Z,14.44
2022-09-04T00:17:44.089Z,14.44
2022-09-04T00:18:44.022Z,14.36
2022-09-04T00:19:43.931Z,14.34
2022-09-04T00:20:43.858Z,14.34
2022-09-04T00:22:04.765Z,14.35
2022-09-04T00:22:43.694Z,14.41
2022-09-04T00:23:43.619Z,14.35
2022-09-04T00:24:43.544Z,14.32
2022-09-04T00:25:43.478Z,14.24
2022-09-04T00:26:43.383Z,14.32
2022-09-04T00:28:04.289Z,14.20
2022-09-04T00:28:43.229Z,14.09
2022-09-04T00:29:43.157Z,14.16
2022-09-04T00:30:43.120Z,14.11
2022-09-04T00:31:43.011Z,14.03
2022-09-04T00:32:42.910Z,14.13
2022-09-04T00:34:03.818Z,14.10
2022-09-04T00:34:42.767Z,14.09
2022-09-04T00:35:42.704Z,14.19
2022-09-04T00:36:45.809Z,14.03
2022-09-04T00:37:42.540Z,14.11
2022-09-04T00:38:42.458Z,14.05
2022-09-04T00:40:03.474Z,14.19
2022-09-04T00:40:42.302Z,14.14
2022-09-04T00:41:42.225Z,14.13
2022-09-04T00:42:42.134Z,14.19
2022-09-04T00:43:42.072Z,14.20
2022-09-04T00:44:41.976Z,14.20
2022-09-04T00:46:02.922Z,14.17
2022-09-04T00:46:41.829Z,14.13
2022-09-04T00:47:41.762Z,14.13
2022-09-04T00:48:41.676Z,14.05
2022-09-04T00:49:41.604Z,14.07
2022-09-04T00:50:41.522Z,14.03
2022-09-04T00:52:02.417Z,14.02
2022-09-04T00:52:41.358Z,13.92
2022-09-04T00:53:41.294Z,13.95
2022-09-04T00:54:41.211Z,13.87
2022-09-04T00:55:41.129Z,13.86
2022-09-04T00:56:41.041Z,13.73
2022-09-04T00:58:01.951Z,13.87
2022-09-04T00:58:40.891Z,13.78
2022-09-04T00:59:40.834Z,13.80
2022-09-04T01:00:40.783Z,13.87
2022-09-04T01:01:40.783Z,13.86
2022-09-04T01:02:40.583Z,13.80
2022-09-04T01:04:01.486Z,13.81
2022-09-04T01:04:40.419Z,13.78
2022-09-04T01:05:40.359Z,13.73
2022-09-04T01:06:40.272Z,13.77
2022-09-04T01:07:40.198Z,13.77
2022-09-04T01:08:40.105Z,13.74
2022-09-04T01:10:01.037Z,13.84
2022-09-04T01:10:39.976Z,13.83
2022-09-04T01:11:39.887Z,13.83
2022-09-04T01:12:39.801Z,13.86
2022-09-04T01:13:39.733Z,13.92
2022-09-04T01:14:39.651Z,13.84
2022-09-04T01:16:00.669Z,13.87
2022-09-04T01:16:39.525Z,13.89
2022-09-04T01:17:39.412Z,13.99
2022-09-04T01:18:39.344Z,13.94
2022-09-04T01:19:39.251Z,13.92
2022-09-04T01:20:39.183Z,13.92
2022-09-04T01:22:00.091Z,13.92
2022-09-04T01:22:39.026Z,13.91
2022-09-04T01:23:38.940Z,13.92
2022-09-04T01:24:38.875Z,13.94
2022-09-04T01:25:38.794Z,14.02
2022-09-04T01:26:38.704Z,13.94
2022-09-04T01:27:59.617Z,13.94
2022-09-04T01:28:38.561Z,13.91
2022-09-04T01:29:38.478Z,13.95
2022-09-04T01:30:38.398Z,13.96
2022-09-04T01:31:38.406Z,13.99
2022-09-04T01:32:38.232Z,13.98
2022-09-04T01:33:59.149Z,13.83
2022-09-04T01:34:38.081Z,13.77
2022-09-04T01:35:38.003Z,13.80
2022-09-04T01:36:37.931Z,13.66
2022-09-04T01:37:37.871Z,13.62
2022-09-04T01:38:37.778Z,13.56
2022-09-04T01:39:58.715Z,13.70
2022-09-04T01:40:37.614Z,13.70
2022-09-04T01:41:38.607Z,13.68
2022-09-04T01:42:37.462Z,13.66
2022-09-04T01:43:37.381Z,13.66
2022-09-04T01:44:37.303Z,13.65
2022-09-04T01:45:58.263Z,13.73
2022-09-04T01:46:37.142Z,13.66
2022-09-04T01:47:37.070Z,13.55
2022-09-04T01:48:36.996Z,13.44
2022-09-04T01:49:36.931Z,13.44
2022-09-04T01:50:36.847Z,13.43
2022-09-04T01:51:57.751Z,13.40
2022-09-04T01:52:36.794Z,13.41
2022-09-04T01:53:36.602Z,13.33
2022-09-04T01:54:36.527Z,13.29
2022-09-04T01:55:36.452Z,13.38
2022-09-04T01:56:36.358Z,13.44
2022-09-04T01:57:57.279Z,13.37
2022-09-04T01:58:36.216Z,13.33
2022-09-04T01:59:36.139Z,13.27
2022-09-04T02:00:36.048Z,13.28
2022-09-04T02:01:36.052Z,13.29
2022-09-04T02:02:35.975Z,13.25
2022-09-04T02:03:56.806Z,13.25
2022-09-04T02:04:35.736Z,13.09
2022-09-04T02:05:35.673Z,13.14
2022-09-04T02:06:35.608Z,13.11
2022-09-04T02:07:35.505Z,13.07
2022-09-04T02:08:35.436Z,13.06
2022-09-04T02:09:56.340Z,13.11
2022-09-04T02:10:35.276Z,13.11
2022-09-04T02:11:35.190Z,13.06
2022-09-04T02:12:35.124Z,13.07
2022-09-04T02:13:35.042Z,12.92
2022-09-04T02:14:34.954Z,12.88
2022-09-04T02:15:55.898Z,12.88
2022-09-04T02:16:34.908Z,12.94
2022-09-04T02:17:34.721Z,12.96
2022-09-04T02:18:34.644Z,13.03
2022-09-04T02:19:34.576Z,13.07
2022-09-04T02:20:34.487Z,13.09
2022-09-04T02:21:55.393Z,13.10
2022-09-04T02:22:34.330Z,13.15
2022-09-04T02:23:34.252Z,13.19
2022-09-04T02:24:34.171Z,13.18
2022-09-04T02:25:34.115Z,13.19
2022-09-04T02:26:34.015Z,13.02
2022-09-04T02:27:54.927Z,13.00
2022-09-04T02:28:33.856Z,12.91
2022-09-04T02:29:33.797Z,12.88
2022-09-04T02:30:33.721Z,12.96
2022-09-04T02:31:33.663Z,12.96
2022-09-04T02:32:33.552Z,13.04
2022-09-04T02:33:54.448Z,13.04
2022-09-04T02:34:33.393Z,13.06
2022-09-04T02:35:33.312Z,13.15
2022-09-04T02:36:33.227Z,13.22
2022-09-04T02:37:33.153Z,13.27
2022-09-04T02:38:33.088Z,13.28
2022-09-04T02:39:53.998Z,13.28
2022-09-04T02:40:32.925Z,13.25
2022-09-04T02:41:32.847Z,13.36
2022-09-04T02:42:32.758Z,13.38
2022-09-04T02:43:32.684Z,13.32
2022-09-04T02:44:32.606Z,13.43
2022-09-04T02:45:53.521Z,13.40
2022-09-04T02:46:32.541Z,13.44
2022-09-04T02:47:32.373Z,13.48
2022-09-04T02:48:32.299Z,13.43
2022-09-04T02:49:32.215Z,13.48
2022-09-04T02:50:32.130Z,13.47
2022-09-04T02:51:53.037Z,13.38
2022-09-04T02:52:32.002Z,13.45
2022-09-04T02:53:31.908Z,13.44
2022-09-04T02:54:31.814Z,13.38
2022-09-04T02:55:31.758Z,13.37
2022-09-04T02:56:31.667Z,13.43
2022-09-04T02:57:52.568Z,13.38
2022-09-04T02:58:31.519Z,13.37
2022-09-04T02:59:31.427Z,13.28
2022-09-04T03:00:31.392Z,13.37
2022-09-04T03:01:31.286Z,13.33
2022-09-04T03:02:31.247Z,13.41
2022-09-04T03:03:52.121Z,13.41
2022-09-04T03:04:31.040Z,13.48
2022-09-04T03:05:30.964Z,13.43
2022-09-04T03:06:30.882Z,13.38
2022-09-04T03:07:30.809Z,13.47
2022-09-04T03:08:30.724Z,13.43
2022-09-04T03:09:51.628Z,13.37
2022-09-04T03:10:30.566Z,13.36
2022-09-04T03:11:30.500Z,13.28
2022-09-04T03:12:30.410Z,13.17
2022-09-04T03:13:30.343Z,13.11
2022-09-04T03:14:30.261Z,13.09
2022-09-04T03:15:51.217Z,13.18
2022-09-04T03:16:30.158Z,13.14
2022-09-04T03:17:30.041Z,13.21
2022-09-04T03:18:29.941Z,13.22
2022-09-04T03:19:29.859Z,13.18
2022-09-04T03:20:29.788Z,13.21
2022-09-04T03:21:50.707Z,13.22
2022-09-04T03:22:29.628Z,13.25
2022-09-04T03:23:29.542Z,13.29
2022-09-04T03:24:29.470Z,13.24
2022-09-04T03:25:29.393Z,13.25
2022-09-04T03:26:29.312Z,13.27
2022-09-04T03:27:50.237Z,13.28
2022-09-04T03:28:29.151Z,13.32
2022-09-04T03:29:29.072Z,13.28
2022-09-04T03:30:29.005Z,13.27
2022-09-04T03:31:28.969Z,13.33
2022-09-04T03:32:28.839Z,13.32
2022-09-04T03:33:49.746Z,13.36
2022-09-04T03:34:28.687Z,13.33
2022-09-04T03:35:28.605Z,13.33
2022-09-04T03:36:28.529Z,13.37
2022-09-04T03:37:28.457Z,13.38
2022-09-04T03:38:28.381Z,13.36
2022-09-04T03:39:49.355Z,13.36
2022-09-04T03:40:28.218Z,13.37
2022-09-04T03:41:28.129Z,13.36
2022-09-04T03:42:28.065Z,13.40
2022-09-04T03:43:27.970Z,13.41
2022-09-04T03:44:27.913Z,13.44
2022-09-04T03:45:48.804Z,13.47
2022-09-04T03:46:27.825Z,13.48
2022-09-04T03:47:27.676Z,13.50
2022-09-04T03:48:27.655Z,13.47
2022-09-04T03:49:27.508Z,13.50
2022-09-04T03:50:27.435Z,13.53
2022-09-04T03:51:48.334Z,13.48
2022-09-04T03:52:27.284Z,13.55
2022-09-04T03:53:27.199Z,13.50
2022-09-04T03:54:27.121Z,13.45
2022-09-04T03:55:27.045Z,13.48
2022-09-04T03:56:26.967Z,13.53
2022-09-04T03:57:47.861Z,13.47
2022-09-04T03:58:26.801Z,13.44
2022-09-04T03:59:26.718Z,13.40
2022-09-04T04:00:26.771Z,13.37
2022-09-04T04:01:26.573Z,13.33
2022-09-04T04:02:26.573Z,13.36
2022-09-04T04:03:47.400Z,13.36
2022-09-04T04:04:26.339Z,13.32
2022-09-04T04:05:26.256Z,13.28
2022-09-04T04:06:26.191Z,13.27
2022-09-04T04:07:26.107Z,13.28
2022-09-04T04:08:26.104Z,13.28
2022-09-04T04:09:46.928Z,13.37
2022-09-04T04:10:25.861Z,13.37
2022-09-04T04:11:25.786Z,13.33
2022-09-04T04:12:25.702Z,13.29
2022-09-04T04:13:25.626Z,13.27
2022-09-04T04:14:25.556Z,13.37
2022-09-04T04:15:46.514Z,13.37
2022-09-04T04:16:25.559Z,13.33
2022-09-04T04:17:25.328Z,13.33
2022-09-04T04:18:25.323Z,13.41
2022-09-04T04:19:25.150Z,13.38
2022-09-04T04:20:25.084Z,13.40
2022-09-04T04:21:45.992Z,13.43
2022-09-04T04:22:24.926Z,13.40
2022-09-04T04:23:24.844Z,13.40
2022-09-04T04:24:24.774Z,13.40
2022-09-04T04:25:24.689Z,13.44
2022-09-04T04:26:24.609Z,13.47
2022-09-04T04:27:45.507Z,13.48
2022-09-04T04:28:24.543Z,13.47
2022-09-04T04:29:24.377Z,13.52
2022-09-04T04:30:24.294Z,13.52
2022-09-04T04:31:24.265Z,13.50
2022-09-04T04:32:24.137Z,13.62
2022-09-04T04:33:45.044Z,13.56
2022-09-04T04:34:23.986Z,13.59
2022-09-04T04:35:23.898Z,13.62
2022-09-04T04:36:23.824Z,13.56
2022-09-04T04:37:23.738Z,13.59
2022-09-04T04:38:23.671Z,13.58
2022-09-04T04:39:44.667Z,13.45
2022-09-04T04:40:23.524Z,13.63
2022-09-04T04:41:23.427Z,13.61
2022-09-04T04:42:23.372Z,13.55
2022-09-04T04:43:23.273Z,13.56
2022-09-04T04:44:23.209Z,13.58
2022-09-04T04:45:44.092Z,13.58
2022-09-04T04:46:23.090Z,13.59
2022-09-04T04:47:22.954Z,13.56
2022-09-04T04:48:22.902Z,13.58
2022-09-04T04:49:22.806Z,13.65
2022-09-04T04:50:22.741Z,13.61
2022-09-04T04:51:43.624Z,13.62
2022-09-04T04:52:22.568Z,13.56
2022-09-04T04:53:22.495Z,13.61
2022-09-04T04:54:22.420Z,13.63
2022-09-04T04:55:22.339Z,13.59
2022-09-04T04:56:22.257Z,13.62
2022-09-04T04:57:43.177Z,13.61
2022-09-04T04:58:22.160Z,13.52
2022-09-04T04:59:22.032Z,13.58
2022-09-04T05:00:26.743Z,13.58
2022-09-04T05:01:21.939Z,13.55
2022-09-04T05:02:21.879Z,13.61
2022-09-04T05:03:42.705Z,13.59
2022-09-04T05:04:21.627Z,13.58
2022-09-04T05:05:21.545Z,13.59
2022-09-04T05:06:21.487Z,13.65
2022-09-04T05:07:21.396Z,13.62
2022-09-04T05:08:21.335Z,13.58
2022-09-04T05:09:42.219Z,13.70
2022-09-04T05:10:21.167Z,13.70
2022-09-04T05:11:21.085Z,13.59
2022-09-04T05:12:21.015Z,13.71
2022-09-04T05:13:20.921Z,13.65
2022-09-04T05:14:20.859Z,13.68
2022-09-04T05:15:58.433Z,13.59
2022-09-04T05:16:20.779Z,13.62
2022-09-04T05:17:20.601Z,13.58
2022-09-04T05:18:20.548Z,13.59
2022-09-04T05:19:20.465Z,13.59
2022-09-04T05:20:20.380Z,13.56
2022-09-04T05:21:41.282Z,13.59
2022-09-04T05:22:20.216Z,13.70
2022-09-04T05:23:20.142Z,13.63
2022-09-04T05:24:20.071Z,13.66
2022-09-04T05:25:19.988Z,13.58
2022-09-04T05:26:19.904Z,13.68
2022-09-04T05:27:40.818Z,13.68
2022-09-04T05:28:19.785Z,13.61
2022-09-04T05:29:19.666Z,13.61
2022-09-04T05:30:19.588Z,13.62
2022-09-04T05:31:19.548Z,13.53
2022-09-04T05:32:19.441Z,13.45
2022-09-04T05:33:40.341Z,13.53
2022-09-04T05:34:19.281Z,13.65
2022-09-04T05:35:19.203Z,13.62
2022-09-04T05:36:19.136Z,13.59
2022-09-04T05:37:19.047Z,13.62
2022-09-04T05:38:19.039Z,13.62
2022-09-04T05:39:39.951Z,13.62
2022-09-04T05:40:18.811Z,13.61
2022-09-04T05:41:18.739Z,13.59
2022-09-04T05:42:18.667Z,13.45
2022-09-04T05:43:18.568Z,13.52
2022-09-04T05:44:18.494Z,13.48
2022-09-04T05:45:39.414Z,13.50
2022-09-04T05:46:18.393Z,13.63
2022-09-04T05:47:18.269Z,13.61
2022-09-04T05:48:18.229Z,13.63
2022-09-04T05:49:18.111Z,13.66
2022-09-04T05:50:18.029Z,13.71
2022-09-04T05:51:38.936Z,13.68
2022-09-04T05:52:17.873Z,13.66
2022-09-04T05:53:17.782Z,13.65
2022-09-04T05:54:17.726Z,13.74
2022-09-04T05:55:17.635Z,13.81
2022-09-04T05:56:17.565Z,13.78
2022-09-04T05:57:38.453Z,13.83
2022-09-04T05:58:17.415Z,13.83
2022-09-04T05:59:17.326Z,13.87
2022-09-04T06:00:17.241Z,13.84
2022-09-04T06:01:17.159Z,13.89
2022-09-04T06:02:17.154Z,13.98
2022-09-04T06:03:37.999Z,14.02
2022-09-04T06:04:16.935Z,13.98
2022-09-04T06:05:16.847Z,14.01
2022-09-04T06:06:16.771Z,14.11
2022-09-04T06:07:16.692Z,14.03
2022-09-04T06:08:16.612Z,14.11
2022-09-04T06:09:37.521Z,14.13
2022-09-04T06:10:16.480Z,14.13
2022-09-04T06:11:16.384Z,14.27
2022-09-04T06:12:19.452Z,14.27
2022-09-04T06:13:16.227Z,14.32
2022-09-04T06:14:16.151Z,14.29
2022-09-04T06:15:37.115Z,14.32
2022-09-04T06:16:16.028Z,14.35
2022-09-04T06:17:15.907Z,14.31
2022-09-04T06:18:15.835Z,14.38
2022-09-04T06:19:15.761Z,14.39
2022-09-04T06:20:15.691Z,14.38
2022-09-04T06:21:36.588Z,14.52
2022-09-04T06:22:15.519Z,14.52
2022-09-04T06:23:15.435Z,14.56
2022-09-04T06:24:15.366Z,14.59
2022-09-04T06:25:15.282Z,14.61
2022-09-04T06:26:15.208Z,14.68
2022-09-04T06:27:36.106Z,14.68
2022-09-04T06:28:15.050Z,14.90
2022-09-04T06:29:14.976Z,14.84
2022-09-04T06:30:14.907Z,14.90
2022-09-04T06:31:14.846Z,15.06
2022-09-04T06:32:14.749Z,15.06
2022-09-04T06:33:35.637Z,15.12
2022-09-04T06:34:17.187Z,15.18
2022-09-04T06:35:14.501Z,15.18
2022-09-04T06:36:14.437Z,15.30
2022-09-04T06:37:14.411Z,15.26
2022-09-04T06:38:14.363Z,15.31
2022-09-04T06:39:35.272Z,15.35
2022-09-04T06:40:14.168Z,15.51
2022-09-04T06:41:14.065Z,15.51
2022-09-04T06:42:14.053Z,15.51
2022-09-04T06:43:13.885Z,15.60
2022-09-04T06:44:13.891Z,15.60
2022-09-04T06:45:34.712Z,15.61
2022-09-04T06:46:13.694Z,15.73
2022-09-04T06:47:13.564Z,15.70
2022-09-04T06:48:13.509Z,15.76
2022-09-04T06:49:13.421Z,15.71
2022-09-04T06:50:13.346Z,15.76
2022-09-04T06:51:34.302Z,15.88
2022-09-04T06:52:13.190Z,15.97
2022-09-04T06:53:13.113Z,15.88
2022-09-04T06:54:13.036Z,16.04
2022-09-04T06:55:12.951Z,16.01
2022-09-04T06:56:12.870Z,16.12
2022-09-04T06:57:33.784Z,16.06
2022-09-04T06:58:12.721Z,16.16
2022-09-04T06:59:12.640Z,16.26
2022-09-04T07:00:12.560Z,16.20
2022-09-04T07:01:12.519Z,16.33
2022-09-04T07:02:12.584Z,16.44
2022-09-04T07:03:33.317Z,16.41
2022-09-04T07:04:12.248Z,16.42
2022-09-04T07:05:12.168Z,16.48
2022-09-04T07:06:12.114Z,16.55
2022-09-04T07:07:12.029Z,16.62
2022-09-04T07:08:11.952Z,16.66
2022-09-04T07:09:32.843Z,16.82
2022-09-04T07:10:11.800Z,16.84
2022-09-04T07:11:11.712Z,16.98
2022-09-04T07:12:11.644Z,17.02
2022-09-04T07:13:11.562Z,17.13
2022-09-04T07:14:11.493Z,17.15
2022-09-04T07:15:32.408Z,17.20
2022-09-04T07:16:11.371Z,17.39
2022-09-04T07:17:11.248Z,17.35
2022-09-04T07:18:11.168Z,17.46
2022-09-04T07:19:11.124Z,17.43
2022-09-04T07:20:11.022Z,17.38
2022-09-04T07:21:31.925Z,17.60
2022-09-04T07:22:10.858Z,17.54
2022-09-04T07:23:10.781Z,17.58
2022-09-04T07:24:10.717Z,17.76
2022-09-04T07:25:10.635Z,17.88
2022-09-04T07:26:10.564Z,18.00
2022-09-04T07:27:31.469Z,17.98
2022-09-04T07:28:10.422Z,18.19
2022-09-04T07:29:10.322Z,18.03
2022-09-04T07:30:10.252Z,18.25
2022-09-04T07:31:10.198Z,18.18
2022-09-04T07:32:10.094Z,18.24
2022-09-04T07:33:31.002Z,18.19
2022-09-04T07:34:09.951Z,18.32
2022-09-04T07:35:09.873Z,18.28
2022-09-04T07:36:09.799Z,18.34
2022-09-04T07:37:09.705Z,18.43
2022-09-04T07:38:09.634Z,18.47
2022-09-04T07:39:30.601Z,18.39
2022-09-04T07:40:09.605Z,18.58
2022-09-04T07:41:09.440Z,18.53
2022-09-04T07:42:09.346Z,18.57
2022-09-04T07:43:09.254Z,18.68
2022-09-04T07:44:09.194Z,18.61
2022-09-04T07:45:30.113Z,18.73
2022-09-04T07:46:09.116Z,18.64
2022-09-04T07:47:08.948Z,18.69
2022-09-04T07:48:08.879Z,18.53
2022-09-04T07:49:08.814Z,18.58
2022-09-04T07:50:08.733Z,18.64
2022-09-04T07:51:29.643Z,18.62
2022-09-04T07:52:08.568Z,18.74
2022-09-04T07:53:11.339Z,18.80
2022-09-04T07:54:08.418Z,18.80
2022-09-04T07:55:08.357Z,18.90
2022-09-04T07:56:08.280Z,19.01
2022-09-04T07:57:29.178Z,19.24
2022-09-04T07:58:08.112Z,19.36
2022-09-04T07:59:08.041Z,19.55
2022-09-04T08:00:07.953Z,19.60
2022-09-04T08:01:07.960Z,19.79
2022-09-04T08:02:07.858Z,19.93
2022-09-04T08:03:28.724Z,20.12
2022-09-04T08:04:07.673Z,20.27
2022-09-04T08:05:07.655Z,20.47
2022-09-04T08:06:07.513Z,20.54
2022-09-04T08:07:11.520Z,20.65
2022-09-04T08:08:09.628Z,20.82
2022-09-04T08:09:28.273Z,20.79
2022-09-04T08:10:07.208Z,20.99
2022-09-04T08:11:07.132Z,21.11
2022-09-04T08:12:07.051Z,21.19
2022-09-04T08:13:06.986Z,21.26
2022-09-04T08:14:06.905Z,21.45
2022-09-04T08:15:27.873Z,21.56
2022-09-04T08:16:06.796Z,21.69
2022-09-04T08:17:06.686Z,21.85
2022-09-04T08:18:06.615Z,22.00
2022-09-04T08:19:06.583Z,22.05
2022-09-04T08:20:06.468Z,22.13
2022-09-04T08:21:27.375Z,22.24
2022-09-04T08:22:06.310Z,22.28
2022-09-04T08:23:06.233Z,22.19
2022-09-04T08:24:06.148Z,22.04
2022-09-04T08:25:06.083Z,22.01
2022-09-04T08:26:06.008Z,22.13
2022-09-04T08:27:26.910Z,22.26
2022-09-04T08:28:05.860Z,22.41
2022-09-04T08:29:05.785Z,22.56
2022-09-04T08:30:05.710Z,22.72
2022-09-04T08:31:05.692Z,22.71
2022-09-04T08:32:05.570Z,22.63
2022-09-04T08:33:26.467Z,22.62
2022-09-04T08:34:05.428Z,22.71
2022-09-04T08:35:05.339Z,22.60
2022-09-04T08:36:05.266Z,22.57
2022-09-04T08:37:05.195Z,22.52
2022-09-04T08:38:05.110Z,22.62
2022-09-04T08:39:26.076Z,22.72
2022-09-04T08:40:05.029Z,22.79
2022-09-04T08:41:04.890Z,22.89
2022-09-04T08:42:04.826Z,22.99
2022-09-04T08:43:04.743Z,23.14
2022-09-04T08:44:04.689Z,23.12
2022-09-04T08:45:25.598Z,23.18
2022-09-04T08:46:04.569Z,23.34
2022-09-04T08:47:04.463Z,23.40
2022-09-04T08:48:04.378Z,23.48
2022-09-04T08:49:04.308Z,23.52
2022-09-04T08:50:04.254Z,23.46
2022-09-04T08:51:25.145Z,23.35
2022-09-04T08:52:04.087Z,23.22
2022-09-04T08:53:04.199Z,23.12
2022-09-04T08:54:03.943Z,23.22
2022-09-04T08:55:03.870Z,23.27
2022-09-04T08:56:03.795Z,23.18
2022-09-04T08:57:24.704Z,23.17
2022-09-04T08:58:03.735Z,23.33
2022-09-04T08:59:03.590Z,23.37
2022-09-04T09:00:03.513Z,23.48
2022-09-04T09:01:03.491Z,23.49
2022-09-04T09:02:03.436Z,23.50
2022-09-04T09:03:24.371Z,23.52
2022-09-04T09:04:03.282Z,23.42
2022-09-04T09:05:03.179Z,23.42
2022-09-04T09:06:03.078Z,23.50
2022-09-04T09:07:02.997Z,23.52
2022-09-04T09:08:02.924Z,23.68
2022-09-04T09:09:23.834Z,23.72
2022-09-04T09:10:02.774Z,23.64
2022-09-04T09:11:02.704Z,23.61
2022-09-04T09:12:02.649Z,23.55
2022-09-04T09:13:02.572Z,23.70
2022-09-04T09:14:02.476Z,23.71
2022-09-04T09:15:23.395Z,23.74
2022-09-04T09:16:02.335Z,23.72
2022-09-04T09:17:02.309Z,23.79
2022-09-04T09:18:02.186Z,23.85
2022-09-04T09:19:02.113Z,23.92
2022-09-04T09:20:02.037Z,23.79
2022-09-04T09:21:22.965Z,23.93
2022-09-04T09:22:01.898Z,23.97
2022-09-04T09:23:01.823Z,24.16
2022-09-04T09:24:01.754Z,24.25
2022-09-04T09:25:01.680Z,24.38
2022-09-04T09:26:01.610Z,24.50
2022-09-04T09:27:22.525Z,24.53
2022-09-04T09:28:01.486Z,24.52
2022-09-04T09:29:01.405Z,24.57
2022-09-04T09:30:01.323Z,24.76
2022-09-04T09:31:01.289Z,24.82
2022-09-04T09:32:03.859Z,24.97
2022-09-04T09:33:22.092Z,25.16
2022-09-04T09:34:01.056Z,25.17
2022-09-04T09:35:00.974Z,25.25
2022-09-04T09:36:00.897Z,25.32
2022-09-04T09:37:00.831Z,25.34
2022-09-04T09:38:04.324Z,25.38
2022-09-04T09:39:21.690Z,25.55
2022-09-04T09:40:00.650Z,25.53
2022-09-04T09:41:00.568Z,25.65
2022-09-04T09:42:00.468Z,25.64
2022-09-04T09:43:00.399Z,25.67
2022-09-04T09:44:00.327Z,25.57
2022-09-04T09:45:21.246Z,25.57
2022-09-04T09:46:00.229Z,25.55
2022-09-04T09:47:00.106Z,25.55
2022-09-04T09:48:00.046Z,25.41
2022-09-04T09:48:59.983Z,25.32
2022-09-04T09:49:59.893Z,25.12
2022-09-04T09:51:20.811Z,25.16
2022-09-04T09:51:59.758Z,25.00
2022-09-04T09:52:59.686Z,24.83
2022-09-04T09:53:59.611Z,24.62
2022-09-04T09:54:59.548Z,24.63
2022-09-04T09:55:59.470Z,24.54
2022-09-04T09:57:20.383Z,24.54
2022-09-04T09:57:59.325Z,24.47
2022-09-04T09:58:59.279Z,24.54
2022-09-04T09:59:59.180Z,24.44
2022-09-04T10:00:59.157Z,24.47
2022-09-04T10:01:59.062Z,24.38
2022-09-04T10:03:19.962Z,24.32
2022-09-04T10:03:58.895Z,24.20
2022-09-04T10:04:58.830Z,24.17
2022-09-04T10:05:58.747Z,24.11
2022-09-04T10:06:58.685Z,24.10
2022-09-04T10:07:58.662Z,23.93
2022-09-04T10:09:19.531Z,23.86
2022-09-04T10:09:58.467Z,23.86
2022-09-04T10:10:58.404Z,23.75
2022-09-04T10:11:58.319Z,23.68
2022-09-04T10:12:58.250Z,23.60
2022-09-04T10:13:58.190Z,23.58
2022-09-04T10:15:19.092Z,23.61
2022-09-04T10:15:58.030Z,23.63
2022-09-04T10:16:58.054Z,23.50
2022-09-04T10:17:57.901Z,23.65
2022-09-04T10:18:57.825Z,23.63
2022-09-04T10:19:57.746Z,23.55
2022-09-04T10:21:18.663Z,23.55
2022-09-04T10:21:57.608Z,23.55
2022-09-04T10:22:57.527Z,23.64
2022-09-04T10:23:57.466Z,23.65
2022-09-04T10:24:57.393Z,23.79
2022-09-04T10:25:57.311Z,23.92
2022-09-04T10:27:18.233Z,24.17
2022-09-04T10:27:57.171Z,24.34
2022-09-04T10:28:57.102Z,24.52
2022-09-04T10:29:57.024Z,24.66
2022-09-04T10:30:57.031Z,24.83
2022-09-04T10:31:56.891Z,25.04
2022-09-04T10:33:17.807Z,25.13
2022-09-04T10:33:56.730Z,25.30
2022-09-04T10:34:56.667Z,25.32
2022-09-04T10:35:56.589Z,25.35
2022-09-04T10:36:56.545Z,25.20
2022-09-04T10:37:56.444Z,25.25
2022-09-04T10:39:17.373Z,25.10
2022-09-04T10:39:56.383Z,25.05
2022-09-04T10:40:56.244Z,24.88
2022-09-04T10:41:56.176Z,24.73
2022-09-04T10:42:56.111Z,24.71
2022-09-04T10:43:56.016Z,24.63
2022-09-04T10:45:16.937Z,24.47
2022-09-04T10:45:55.936Z,24.41
2022-09-04T10:46:55.815Z,24.40
2022-09-04T10:47:55.747Z,24.45
2022-09-04T10:48:55.669Z,24.47
2022-09-04T10:49:55.588Z,24.41
2022-09-04T10:51:16.521Z,24.47
2022-09-04T10:51:55.458Z,24.47
2022-09-04T10:52:55.382Z,24.64
2022-09-04T10:53:55.309Z,24.64
2022-09-04T10:54:55.245Z,24.79
2022-09-04T10:55:55.170Z,24.85
2022-09-04T10:57:16.085Z,24.80
2022-09-04T10:57:55.030Z,24.67
2022-09-04T10:58:54.956Z,24.67
2022-09-04T10:59:58.957Z,24.64
2022-09-04T11:00:54.860Z,24.73
2022-09-04T11:01:54.805Z,24.90
2022-09-04T11:03:15.651Z,24.98
2022-09-04T11:03:54.592Z,25.08
2022-09-04T11:04:54.538Z,25.27
2022-09-04T11:05:54.446Z,25.45
2022-09-04T11:06:54.388Z,25.60
2022-09-04T11:07:54.310Z,25.67
2022-09-04T11:09:15.236Z,25.75
2022-09-04T11:09:54.169Z,25.84
2022-09-04T11:10:54.109Z,26.01
2022-09-04T11:11:54.024Z,26.11
2022-09-04T11:12:53.953Z,26.07
2022-09-04T11:13:53.889Z,26.08
2022-09-04T11:15:14.816Z,25.93
2022-09-04T11:15:53.735Z,25.78
2022-09-04T11:16:57.310Z,25.68
2022-09-04T11:17:53.603Z,25.70
2022-09-04T11:18:53.542Z,25.78
2022-09-04T11:19:53.451Z,25.72
2022-09-04T11:21:14.380Z,25.82
2022-09-04T11:21:53.328Z,25.70
2022-09-04T11:22:53.258Z,25.71
2022-09-04T11:23:53.185Z,25.55
2022-09-04T11:24:53.118Z,25.47
2022-09-04T11:25:53.036Z,25.50
2022-09-04T11:27:13.949Z,25.46
2022-09-04T11:27:52.891Z,25.42
2022-09-04T11:28:52.833Z,25.46
2022-09-04T11:29:52.760Z,25.30
2022-09-04T11:30:52.680Z,25.32
2022-09-04T11:31:52.644Z,25.30
2022-09-04T11:33:13.541Z,25.25
2022-09-04T11:33:52.478Z,25.30
2022-09-04T11:34:52.421Z,25.22
2022-09-04T11:35:52.330Z,25.17
2022-09-04T11:36:52.261Z,25.05
2022-09-04T11:37:57.026Z,25.04
2022-09-04T11:39:13.101Z,24.94
2022-09-04T11:39:52.134Z,24.88
2022-09-04T11:40:51.984Z,24.79
2022-09-04T11:41:51.911Z,24.88
2022-09-04T11:42:51.840Z,24.79
2022-09-04T11:43:51.762Z,24.80
2022-09-04T11:45:12.682Z,24.79
2022-09-04T11:45:51.701Z,24.83
2022-09-04T11:46:51.567Z,25.02
2022-09-04T11:47:51.475Z,25.17
2022-09-04T11:48:51.415Z,25.32
2022-09-04T11:49:51.337Z,25.40
2022-09-04T11:51:12.258Z,25.62
2022-09-04T11:51:51.201Z,25.68
2022-09-04T11:52:51.122Z,25.84
2022-09-04T11:53:51.053Z,25.96
2022-09-04T11:54:50.992Z,25.96
2022-09-04T11:55:52.881Z,26.08
2022-09-04T11:57:11.840Z,26.18
2022-09-04T11:57:50.772Z,26.34
2022-09-04T11:58:50.715Z,26.42
2022-09-04T11:59:50.641Z,26.43
2022-09-04T12:00:50.573Z,26.38
2022-09-04T12:01:50.542Z,26.28
2022-09-04T12:03:11.407Z,26.35
2022-09-04T12:03:50.397Z,26.40
2022-09-04T12:04:50.281Z,26.32
2022-09-04T12:05:50.199Z,26.31
2022-09-04T12:06:50.136Z,26.24
2022-09-04T12:07:50.072Z,26.28
2022-09-04T12:09:10.976Z,26.35
2022-09-04T12:09:49.927Z,26.53
2022-09-04T12:10:49.846Z,26.61
2022-09-04T12:11:50.872Z,26.65
2022-09-04T12:12:49.729Z,26.62
2022-09-04T12:13:49.646Z,26.58
2022-09-04T12:15:10.560Z,26.49
2022-09-04T12:15:49.502Z,26.50
2022-09-04T12:16:49.471Z,26.52
2022-09-04T12:17:49.374Z,26.58
2022-09-04T12:18:49.300Z,26.64
2022-09-04T12:19:49.235Z,26.76
2022-09-04T12:21:10.136Z,26.97
2022-09-04T12:21:49.089Z,27.12
2022-09-04T12:22:49.016Z,27.09
2022-09-04T12:23:48.957Z,27.19
2022-09-04T12:24:48.874Z,27.29
2022-09-04T12:25:48.804Z,27.14
2022-09-04T12:27:09.732Z,26.98
2022-09-04T12:27:48.669Z,26.79
2022-09-04T12:28:48.594Z,26.39
2022-09-04T12:29:48.528Z,26.24
2022-09-04T12:30:48.454Z,26.09
2022-09-04T12:31:51.239Z,25.92
2022-09-04T12:33:09.313Z,25.84
2022-09-04T12:33:48.244Z,25.83
2022-09-04T12:34:48.190Z,25.93
2022-09-04T12:35:48.104Z,25.94
2022-09-04T12:36:48.042Z,26.12
2022-09-04T12:37:47.982Z,26.35
2022-09-04T12:39:08.870Z,26.47
2022-09-04T12:39:47.877Z,26.62
2022-09-04T12:40:47.759Z,26.71
2022-09-04T12:41:49.897Z,26.80
2022-09-04T12:42:47.617Z,26.62
2022-09-04T12:43:47.553Z,26.58
2022-09-04T12:45:08.461Z,26.60
2022-09-04T12:45:47.458Z,26.64
2022-09-04T12:46:47.334Z,26.69
2022-09-04T12:47:47.291Z,26.72
2022-09-04T12:48:47.278Z,26.83
2022-09-04T12:49:47.134Z,26.94
2022-09-04T12:51:08.050Z,27.21
2022-09-04T12:51:46.997Z,27.27